createdAt,value
2022-09-10T00:03:33.306Z,16.40
2022-09-10T00:07:18.736Z,16.40
2022-09-10T00:11:05.445Z,16.30
2022-09-10T00:14:47.487Z,16.30
2022-09-10T00:18:29.905Z,16.20
2022-09-10T00:22:13.356Z,16.20
2022-09-10T00:25:56.927Z,16.20
2022-09-10T00:29:38.881Z,16.10
2022-09-10T00:33:22.988Z,16.10
2022-09-10T00:37:05.668Z,16.10
2022-09-10T00:40:50.036Z,16.10
2022-09-10T00:44:39.735Z,16.10
2022-09-10T00:48:32.071Z,16.00
2022-09-10T00:52:14.781Z,16.00
2022-09-10T00:56:00.326Z,16.00
2022-09-10T00:59:46.843Z,15.90
2022-09-10T01:03:32.824Z,15.90
2022-09-10T01:07:15.881Z,15.90
2022-09-10T01:11:13.770Z,15.90
2022-09-10T01:15:05.861Z,15.80
2022-09-10T01:19:24.608Z,15.80
2022-09-10T01:23:32.764Z,15.80
2022-09-10T01:27:26.765Z,15.60
2022-09-10T01:31:15.947Z,15.60
2022-09-10T01:35:21.210Z,15.60
2022-09-10T01:39:03.490Z,15.60
2022-09-10T01:42:46.334Z,15.50
2022-09-10T01:46:57.680Z,15.50
2022-09-10T01:50:46.001Z,15.50
2022-09-10T01:54:52.409Z,15.40
2022-09-10T01:58:40.745Z,15.30
2022-09-10T02:02:30.070Z,15.30
2022-09-10T02:06:16.451Z,15.20
2022-09-10T02:09:59.589Z,15.20
2022-09-10T02:13:45.202Z,15.20
2022-09-10T02:17:36.731Z,15.20
2022-09-10T02:21:19.896Z,15.20
2022-09-10T02:25:01.955Z,15.20
2022-09-10T02:28:44.672Z,15.10
2022-09-10T02:32:26.694Z,15.10
2022-09-10T02:36:08.809Z,15.00
2022-09-10T02:39:50.881Z,15.00
2022-09-10T02:43:38.354Z,15.00
2022-09-10T02:47:20.369Z,14.90
2022-09-10T02:51:02.836Z,14.90
2022-09-10T02:54:44.701Z,14.90
2022-09-10T02:58:26.593Z,14.90
2022-09-10T03:02:08.688Z,14.90
2022-09-10T03:05:50.783Z,15.00
2022-09-10T03:09:32.915Z,15.00
2022-09-10T03:13:14.762Z,15.00
2022-09-10T03:16:58.433Z,15.10
2022-09-10T03:20:41.451Z,15.10
2022-09-10T03:24:23.579Z,15.10
2022-09-10T03:28:05.459Z,15.10
2022-09-10T03:31:47.496Z,15.10
2022-09-10T03:35:29.347Z,15.20
2022-09-10T03:39:11.280Z,15.30
2022-09-10T03:42:53.948Z,15.30
2022-09-10T03:46:36.447Z,15.30
2022-09-10T03:50:18.537Z,15.30
2022-09-10T03:54:00.900Z,15.40
2022-09-10T03:57:42.753Z,15.40
2022-09-10T04:01:24.939Z,15.50
2022-09-10T04:05:07.094Z,15.50
2022-09-10T04:08:50.767Z,15.50
2022-09-10T04:12:32.835Z,15.50
2022-09-10T04:16:16.627Z,15.50
2022-09-10T04:19:58.479Z,15.40
2022-09-10T04:23:41.383Z,15.30
2022-09-10T04:27:23.287Z,15.20
2022-09-10T04:31:05.207Z,15.10
2022-09-10T04:34:47.261Z,15.10
2022-09-10T04:38:30.499Z,15.10
2022-09-10T04:42:15.179Z,15.00
2022-09-10T04:45:57.239Z,15.00
2022-09-10T04:49:39.179Z,15.00
2022-09-10T04:53:21.773Z,15.00
2022-09-10T04:57:04.535Z,15.00
2022-09-10T05:00:46.628Z,15.00
2022-09-10T05:04:28.513Z,15.00
2022-09-10T05:08:10.405Z,14.90
2022-09-10T05:11:52.508Z,15.00
2022-09-10T05:15:35.903Z,15.00
2022-09-10T05:19:18.092Z,14.90
2022-09-10T05:22:59.994Z,14.90
2022-09-10T05:26:42.201Z,14.90
2022-09-10T05:30:24.872Z,14.80
2022-09-10T05:34:08.758Z,14.80
2022-09-10T05:37:51.081Z,14.80
2022-09-10T05:41:33.246Z,14.80
2022-09-10T05:45:15.773Z,14.70
2022-09-10T05:48:58.118Z,14.80
2022-09-10T05:52:40.399Z,14.70
2022-09-10T05:56:22.235Z,14.70
2022-09-10T06:00:07.725Z,14.70
2022-09-10T06:03:51.097Z,14.70
2022-09-10T06:07:33.118Z,14.80
2022-09-10T06:11:15.620Z,14.80
2022-09-10T06:14:57.697Z,14.80
2022-09-10T06:18:39.990Z,14.80
2022-09-10T06:22:22.075Z,14.80
2022-09-10T06:26:06.619Z,14.90
2022-09-10T06:29:48.525Z,15.20
2022-09-10T06:33:34.110Z,15.40
2022-09-10T06:37:16.495Z,15.60
2022-09-10T06:41:00.932Z,15.90
2022-09-10T06:44:42.842Z,16.20
2022-09-10T06:48:50.266Z,16.40
2022-09-10T06:52:30.490Z,16.50
2022-09-10T06:56:13.516Z,16.60
2022-09-10T06:59:55.449Z,16.60
2022-09-10T07:03:37.592Z,16.70
2022-09-10T07:07:20.261Z,16.70
2022-09-10T07:11:08.187Z,16.80
2022-09-10T07:14:49.971Z,16.90
2022-09-10T07:18:32.210Z,17.00
2022-09-10T07:22:14.698Z,17.00
2022-09-10T07:26:03.984Z,17.10
2022-09-10T07:29:46.639Z,17.10
2022-09-10T07:33:35.282Z,17.20
2022-09-10T07:37:17.325Z,17.20
2022-09-10T07:41:02.268Z,17.30
2022-09-10T07:44:44.277Z,17.30
2022-09-10T07:48:27.517Z,17.40
2022-09-10T07:52:09.533Z,17.40
2022-09-10T07:55:59.366Z,17.50
2022-09-10T07:59:41.610Z,17.50
2022-09-10T08:03:23.619Z,17.50
2022-09-10T08:07:07.131Z,17.50
2022-09-10T08:10:49.945Z,17.70
2022-09-10T08:14:31.892Z,17.80
2022-09-10T08:18:14.848Z,17.90
2022-09-10T08:21:59.502Z,18.00
2022-09-10T08:25:51.630Z,18.10
2022-09-10T08:29:34.930Z,18.30
2022-09-10T08:33:16.812Z,18.50
2022-09-10T08:36:59.659Z,18.80
2022-09-10T08:40:43.257Z,19.00
2022-09-10T08:44:25.018Z,19.40
2022-09-10T08:48:17.836Z,19.70
2022-09-10T08:52:13.604Z,20.10
2022-09-10T08:56:02.418Z,20.60
2022-09-10T08:59:48.267Z,21.10
2022-09-10T09:03:45.534Z,21.60
2022-09-10T09:07:37.596Z,22.50
2022-09-10T09:11:29.266Z,23.20
2022-09-10T09:15:14.576Z,23.90
2022-09-10T09:19:29.349Z,24.10
2022-09-10T09:23:22.539Z,23.70
2022-09-10T09:27:10.225Z,24.00
2022-09-10T09:30:56.413Z,24.20
2022-09-10T09:34:54.226Z,24.70
2022-09-10T09:38:43.087Z,25.10
2022-09-10T09:42:43.495Z,24.90
2022-09-10T09:46:25.745Z,24.30
2022-09-10T09:50:11.814Z,23.70
2022-09-10T09:54:39.262Z,23.20
2022-09-10T09:58:21.589Z,22.80
2022-09-10T10:02:13.078Z,22.50
2022-09-10T10:06:10.646Z,22.20
2022-09-10T10:09:53.541Z,22.20
2022-09-10T10:13:40.057Z,22.50
2022-09-10T10:17:24.719Z,22.60
2022-09-10T10:21:31.092Z,23.00
2022-09-10T10:25:38.467Z,23.70
2022-09-10T10:29:21.479Z,24.20
2022-09-10T10:33:04.077Z,24.00
2022-09-10T10:37:14.325Z,23.70
2022-09-10T10:41:09.752Z,23.20
2022-09-10T10:45:10.729Z,23.00
2022-09-10T10:49:07.790Z,22.90
2022-09-10T10:53:18.815Z,22.80
2022-09-10T10:57:50.988Z,22.80
2022-09-10T11:01:42.391Z,22.80
2022-09-10T11:05:32.463Z,22.80
2022-09-10T11:09:18.463Z,22.90
2022-09-10T11:13:06.152Z,23.10
2022-09-10T11:16:58.982Z,23.20
2022-09-10T11:21:37.897Z,23.30
2022-09-10T11:25:27.079Z,23.30
2022-09-10T11:29:25.639Z,23.30
2022-09-10T11:33:37.943Z,23.30
2022-09-10T11:37:51.403Z,23.20
2022-09-10T11:41:35.780Z,23.10
2022-09-10T11:45:36.510Z,22.90
2022-09-10T11:49:36.672Z,22.80
2022-09-10T11:53:33.259Z,22.90
2022-09-10T11:57:48.486Z,23.10
2022-09-10T12:02:06.987Z,23.50
2022-09-10T12:06:23.620Z,23.90
2022-09-10T12:10:18.743Z,24.30
2022-09-10T12:14:14.316Z,24.60
2022-09-10T12:18:27.504Z,25.20
2022-09-10T12:22:31.381Z,25.80
2022-09-10T12:26:20.138Z,25.90
2022-09-10T12:30:25.417Z,25.80
2022-09-10T12:34:18.957Z,25.50
2022-09-10T12:38:50.891Z,25.20
2022-09-10T12:42:35.410Z,25.80
2022-09-10T12:46:20.356Z,28.60
2022-09-10T12:50:16.934Z,31.20
2022-09-10T12:54:11.295Z,32.80
2022-09-10T12:58:14.333Z,32.20
2022-09-10T13:01:56.981Z,31.00
2022-09-10T13:05:48.208Z,29.90
2022-09-10T13:09:33.590Z,28.90
2022-09-10T13:13:46.503Z,28.80
2022-09-10T13:18:01.308Z,29.00
2022-09-10T13:21:43.258Z,29.20
2022-09-10T13:25:46.232Z,29.50
2022-09-10T13:29:47.395Z,29.70
2022-09-10T13:33:33.363Z,30.70
2022-09-10T13:37:28.363Z,31.50
2022-09-10T13:41:34.560Z,32.80
2022-09-10T13:45:30.166Z,34.10
2022-09-10T13:49:29.265Z,33.50
2022-09-10T13:53:13.801Z,31.90
2022-09-10T13:56:57.677Z,30.50
2022-09-10T14:00:49.005Z,29.60
2022-09-10T14:04:44.961Z,29.20
2022-09-10T14:08:32.733Z,28.60
2022-09-10T14:12:17.851Z,27.80
2022-09-10T14:16:02.906Z,27.20
2022-09-10T14:19:59.447Z,26.90
2022-09-10T14:23:50.036Z,26.60
2022-09-10T14:27:38.220Z,26.50
2022-09-10T14:31:44.045Z,26.40
2022-09-10T14:35:44.938Z,26.40
2022-09-10T14:39:27.943Z,26.40
2022-09-10T14:43:19.560Z,26.30
2022-09-10T14:47:15.432Z,26.10
2022-09-10T14:51:13.157Z,26.00
2022-09-10T14:54:56.121Z,25.80
2022-09-10T14:58:38.184Z,25.60
2022-09-10T15:02:24.555Z,25.50
2022-09-10T15:06:06.797Z,25.30
2022-09-10T15:09:48.706Z,25.10
2022-09-10T15:13:32.113Z,24.90
2022-09-10T15:17:15.921Z,24.60
2022-09-10T15:21:01.024Z,24.40
2022-09-10T15:25:08.195Z,24.10
2022-09-10T15:28:45.180Z,24.00
2022-09-10T15:32:27.019Z,23.80
2022-09-10T15:36:09.412Z,23.70
2022-09-10T15:39:51.926Z,23.60
2022-09-10T15:43:37.893Z,23.60
2022-09-10T15:47:19.899Z,23.60
2022-09-10T15:51:04.700Z,23.70
2022-09-10T15:54:46.503Z,23.80
2022-09-10T15:58:29.003Z,23.90
2022-09-10T16:02:13.276Z,23.90
2022-09-10T16:06:00.415Z,23.90
2022-09-10T16:09:43.544Z,23.90
2022-09-10T16:13:26.371Z,23.90
2022-09-10T16:17:10.662Z,23.90
2022-09-10T16:20:52.579Z,23.70
2022-09-10T16:24:34.675Z,23.60
2022-09-10T16:28:16.504Z,23.60
2022-09-10T16:31:58.740Z,23.40
2022-09-10T16:35:41.016Z,23.30
2022-09-10T16:39:23.378Z,23.10
2022-09-10T16:43:05.443Z,23.10
2022-09-10T16:46:47.792Z,23.00
2022-09-10T16:50:31.120Z,22.90
2022-09-10T16:54:14.314Z,22.80
2022-09-10T16:57:56.229Z,22.80
2022-09-10T17:01:38.172Z,22.70
2022-09-10T17:05:20.277Z,22.60
2022-09-10T17:09:02.845Z,22.60
2022-09-10T17:12:44.870Z,22.50
2022-09-10T17:16:35.631Z,22.40
2022-09-10T17:20:19.604Z,22.20
2022-09-10T17:24:03.138Z,22.10
2022-09-10T17:27:45.006Z,21.90
2022-09-10T17:31:27.994Z,21.80
2022-09-10T17:35:11.276Z,21.60
2022-09-10T17:38:54.553Z,21.50
2022-09-10T17:42:36.403Z,21.40
2022-09-10T17:46:21.475Z,21.30
2022-09-10T17:50:03.692Z,21.10
2022-09-10T17:53:45.787Z,21.10
2022-09-10T17:57:27.713Z,21.00
2022-09-10T18:01:14.081Z,20.80
2022-09-10T18:04:56.012Z,20.60
2022-09-10T18:08:39.198Z,20.50
2022-09-10T18:12:21.068Z,20.50
2022-09-10T18:16:15.027Z,20.30
2022-09-10T18:19:58.295Z,20.30
2022-09-10T18:23:41.504Z,20.10
2022-09-10T18:27:23.972Z,20.00
2022-09-10T18:31:06.740Z,19.90
2022-09-10T18:34:48.764Z,19.80
2022-09-10T18:38:31.854Z,19.70
2022-09-10T18:42:13.924Z,19.60
2022-09-10T18:45:55.712Z,19.50
2022-09-10T18:49:38.555Z,19.50
2022-09-10T18:53:20.762Z,19.30
2022-09-10T18:57:02.655Z,19.20
2022-09-10T19:00:44.804Z,19.10
2022-09-10T19:04:28.948Z,19.00
2022-09-10T19:08:10.791Z,19.00
2022-09-10T19:11:54.170Z,18.80
2022-09-10T19:15:36.490Z,18.80
2022-09-10T19:19:23.792Z,18.70
2022-09-10T19:23:05.856Z,18.60
2022-09-10T19:26:47.812Z,18.50
2022-09-10T19:30:33.840Z,18.50
2022-09-10T19:34:20.369Z,18.40
2022-09-10T19:38:12.036Z,18.30
2022-09-10T19:42:05.764Z,18.20
2022-09-10T19:45:47.719Z,18.10
2022-09-10T19:49:29.752Z,18.10
2022-09-10T19:53:12.382Z,18.00
2022-09-10T19:56:56.282Z,18.00
2022-09-10T20:00:46.944Z,17.90
2022-09-10T20:04:29.448Z,17.80
2022-09-10T20:08:11.320Z,17.80
2022-09-10T20:11:53.691Z,17.70
2022-09-10T20:15:43.499Z,17.50
2022-09-10T20:19:27.364Z,17.50
2022-09-10T20:23:09.625Z,17.40
2022-09-10T20:26:52.494Z,17.30
2022-09-10T20:30:35.210Z,17.30
2022-09-10T20:34:20.421Z,17.20
2022-09-10T20:38:02.472Z,17.20
2022-09-10T20:41:45.343Z,17.10
2022-09-10T20:45:28.475Z,17.10
2022-09-10T20:49:11.654Z,17.10
2022-09-10T20:52:53.582Z,17.00
2022-09-10T20:56:35.431Z,17.00
2022-09-10T21:00:17.428Z,16.80
2022-09-10T21:04:01.357Z,16.80
2022-09-10T21:07:43.288Z,16.80
2022-09-10T21:11:29.451Z,16.70
2022-09-10T21:15:12.215Z,16.70
2022-09-10T21:19:02.634Z,16.70
2022-09-10T21:22:44.869Z,16.60
2022-09-10T21:26:30.089Z,16.50
2022-09-10T21:30:13.343Z,16.50
2022-09-10T21:34:02.650Z,16.50
2022-09-10T21:37:44.951Z,16.40
2022-09-10T21:41:33.237Z,16.30
2022-09-10T21:45:15.175Z,16.30
2022-09-10T21:48:57.470Z,16.20
2022-09-10T21:52:41.137Z,16.20
2022-09-10T21:56:25.981Z,16.10
2022-09-10T22:00:08.596Z,16.10
2022-09-10T22:03:53.516Z,16.00
2022-09-10T22:07:35.616Z,16.00
2022-09-10T22:11:24.171Z,16.00
2022-09-10T22:15:06.859Z,16.00
2022-09-10T22:18:49.935Z,16.00
2022-09-10T22:22:31.763Z,15.90
2022-09-10T22:26:16.431Z,15.90
2022-09-10T22:29:59.263Z,15.80
2022-09-10T22:33:44.153Z,15.80
2022-09-10T22:37:25.985Z,15.80
2022-09-10T22:41:10.207Z,15.70
2022-09-10T22:44:52.487Z,15.60
2022-09-10T22:48:39.103Z,15.60
2022-09-10T22:52:21.277Z,15.60
2022-09-10T22:56:03.396Z,15.50
2022-09-10T22:59:45.459Z,15.50
2022-09-10T23:03:27.449Z,15.50
2022-09-10T23:07:10.307Z,15.40
2022-09-10T23:10:54.430Z,15.40
2022-09-10T23:14:36.305Z,15.30
2022-09-10T23:18:18.284Z,15.30
2022-09-10T23:22:00.135Z,15.20
2022-09-10T23:25:43.245Z,15.20
2022-09-10T23:29:25.140Z,15.10
2022-09-10T23:33:07.112Z,15.10
2022-09-10T23:36:49.635Z,15.00
2022-09-10T23:40:34.203Z,15.00
2022-09-10T23:44:16.997Z,15.00
2022-09-10T23:47:58.944Z,14.90
2022-09-10T23:51:41.142Z,14.80
2022-09-10T23:55:23.023Z,14.80
2022-09-10T23:59:05.065Z,14.70
